Waco, TX

2:04 AM CST on December 08, 2016 (GMT -0600)
Downtown Waco | | Change Station

Elev 433 ft 31.56 °N, 97.13 °W | Updated 3 seconds ago

Overcast
Overcast
46.6 °F
Feels Like 43 °F
N
7.6
Wind Variable Wind from East
Gusts 9.8 mph

Today
High -- | Low -- °F
--% Chance of Precip.
Yesterday
High -- | Low -- °F
Precip. -- in
Pressure 30.36 in
Visibility 10.0 miles
Clouds Mostly Cloudy 1700 ft
Overcast 4900 ft
Windchill 43 °F
Dew Point 39 °F
Humidity 75%
Rainfall 0.00 in
Snow Depth Not available.
7:16 AM 5:25 PM
First Quarter, 61% visible
METAR KACT 080751Z 36019G25KT 10SM BKN017 OVC049 07/04 A3036 RMK AO2 PK WND 36027/0737 SLP280 T00670039
Pressure 30.36 in
Visibility 10.0 miles
Clouds Mostly Cloudy 1700 ft
Overcast 4900 ft
Windchill 43 °F
Dew Point 39 °F
Humidity 75%
Rainfall 0.00 in
Snow Depth Not available.
7:16 AM 5:25 PM
First Quarter, 61% visible
METAR KACT 080751Z 36019G25KT 10SM BKN017 OVC049 07/04 A3036 RMK AO2 PK WND 36027/0737 SLP280 T00670039

10-Day Weather Forecast

Almanac

Astronomy

Dec. 08, 2016 Rise Set
Actual Time
Civil Twilight
Nautical Twilight
Astronomical Twilight
Moon
Length of Visible Light
Length of Day
Tomorrow will be .
, % of the Moon is Illuminated

Today's Extremes

State Highs State Lows

Community

WunderPhotos

Upload Photos

1,956,259 photos uploaded!

WunderBlog® & News

Nearby

Air Quality

  Air Quality AQ Index Pollutant
Not available.

Snow Depth

Station Depth Elevation

Earthquake Activity

City Distance Mag. Time & Date
Minimum magnitude displayed is 2.5.

Coastal Water Temperatures

Place Temperature

Stations

Nearby Weather Stations

Station Location Temp. Windchill Dew Point Humidity Wind Precip. Elev Updated Type
                   

Watches & Warnings

There are currently no watches in effect.